sensor_id;sensor_type;location;lat;lon;timestamp;P1;durP1;ratioP1;P2;durP2;ratioP2
20040;SDS011;10181;48.072;9.884;2022-12-15T00:02:22;11.63;;;10.73;;
20040;SDS011;10181;48.072;9.884;2022-12-15T00:05:06;12.27;;;11.33;;
20040;SDS011;10181;48.072;9.884;2022-12-15T00:07:50;12.20;;;11.37;;
20040;SDS011;10181;48.072;9.884;2022-12-15T00:10:34;12.17;;;11.37;;
20040;SDS011;10181;48.072;9.884;2022-12-15T00:13:19;11.13;;;10.43;;
20040;SDS011;10181;48.072;9.884;2022-12-15T00:16:03;10.60;;;9.90;;
20040;SDS011;10181;48.072;9.884;2022-12-15T00:18:48;11.37;;;10.47;;
20040;SDS011;10181;48.072;9.884;2022-12-15T00:21:32;11.70;;;10.90;;
20040;SDS011;10181;48.072;9.884;2022-12-15T00:24:16;10.93;;;10.03;;
20040;SDS011;10181;48.072;9.884;2022-12-15T00:27:00;12.83;;;11.70;;
20040;SDS011;10181;48.072;9.884;2022-12-15T00:29:44;11.00;;;10.07;;
20040;SDS011;10181;48.072;9.884;2022-12-15T00:32:29;13.43;;;12.23;;
20040;SDS011;10181;48.072;9.884;2022-12-15T00:35:13;12.17;;;11.07;;
20040;SDS011;10181;48.072;9.884;2022-12-15T00:37:57;10.43;;;9.43;;
20040;SDS011;10181;48.072;9.884;2022-12-15T00:40:41;10.97;;;8.77;;
20040;SDS011;10181;48.072;9.884;2022-12-15T00:43:07;11.03;;;10.20;;
20040;SDS011;10181;48.072;9.884;2022-12-15T00:45:36;10.57;;;9.77;;
20040;SDS011;10181;48.072;9.884;2022-12-15T00:48:20;12.53;;;11.33;;
20040;SDS011;10181;48.072;9.884;2022-12-15T00:50:46;11.83;;;10.73;;
20040;SDS011;10181;48.072;9.884;2022-12-15T00:53:21;11.77;;;10.60;;
20040;SDS011;10181;48.072;9.884;2022-12-15T00:56:07;10.17;;;9.17;;
20040;SDS011;10181;48.072;9.884;2022-12-15T00:58:52;11.67;;;10.63;;
20040;SDS011;10181;48.072;9.884;2022-12-15T01:01:36;12.83;;;11.53;;
20040;SDS011;10181;48.072;9.884;2022-12-15T01:04:21;13.90;;;12.57;;
20040;SDS011;10181;48.072;9.884;2022-12-15T01:07:05;15.97;;;14.47;;
20040;SDS011;10181;48.072;9.884;2022-12-15T01:09:49;16.00;;;14.90;;
20040;SDS011;10181;48.072;9.884;2022-12-15T01:12:33;18.63;;;17.17;;
20040;SDS011;10181;48.072;9.884;2022-12-15T01:15:17;24.30;;;22.50;;
20040;SDS011;10181;48.072;9.884;2022-12-15T01:18:02;26.70;;;24.83;;
20040;SDS011;10181;48.072;9.884;2022-12-15T01:20:59;29.00;;;26.97;;
20040;SDS011;10181;48.072;9.884;2022-12-15T01:23:26;25.17;;;23.60;;
20040;SDS011;10181;48.072;9.884;2022-12-15T01:25:53;28.07;;;26.43;;
20040;SDS011;10181;48.072;9.884;2022-12-15T01:28:19;26.77;;;24.63;;
20040;SDS011;10181;48.072;9.884;2022-12-15T01:30:45;31.83;;;29.63;;
20040;SDS011;10181;48.072;9.884;2022-12-15T01:33:11;33.63;;;31.73;;
20040;SDS011;10181;48.072;9.884;2022-12-15T01:35:37;33.30;;;31.33;;
20040;SDS011;10181;48.072;9.884;2022-12-15T01:38:03;35.80;;;33.80;;
20040;SDS011;10181;48.072;9.884;2022-12-15T01:40:29;38.23;;;36.20;;
20040;SDS011;10181;48.072;9.884;2022-12-15T01:43:17;39.10;;;37.00;;
20040;SDS011;10181;48.072;9.884;2022-12-15T01:48:19;34.43;;;32.23;;
20040;SDS011;10181;48.072;9.884;2022-12-15T01:51:10;35.93;;;33.80;;
20040;SDS011;10181;48.072;9.884;2022-12-15T01:53:38;38.67;;;36.47;;
20040;SDS011;10181;48.072;9.884;2022-12-15T01:56:07;34.07;;;32.27;;
20040;SDS011;10181;48.072;9.884;2022-12-15T01:58:34;35.13;;;33.03;;
20040;SDS011;10181;48.072;9.884;2022-12-15T02:01:01;36.33;;;34.33;;
20040;SDS011;10181;48.072;9.884;2022-12-15T02:03:27;31.07;;;29.23;;
20040;SDS011;10181;48.072;9.884;2022-12-15T02:05:53;34.47;;;32.67;;
20040;SDS011;10181;48.072;9.884;2022-12-15T02:08:20;31.50;;;29.80;;
20040;SDS011;10181;48.072;9.884;2022-12-15T02:11:06;32.23;;;30.43;;
20040;SDS011;10181;48.072;9.884;2022-12-15T02:14:04;25.77;;;24.00;;
20040;SDS011;10181;48.072;9.884;2022-12-15T02:19:25;26.20;;;24.60;;
20040;SDS011;10181;48.072;9.884;2022-12-15T02:30:24;22.70;;;21.27;;
20040;SDS011;10181;48.072;9.884;2022-12-15T02:33:20;25.07;;;23.70;;
20040;SDS011;10181;48.072;9.884;2022-12-15T02:35:55;24.20;;;22.77;;
20040;SDS011;10181;48.072;9.884;2022-12-15T02:38:29;27.87;;;26.13;;
20040;SDS011;10181;48.072;9.884;2022-12-15T02:40:58;29.80;;;27.93;;
20040;SDS011;10181;48.072;9.884;2022-12-15T02:43:25;32.27;;;30.07;;
20040;SDS011;10181;48.072;9.884;2022-12-15T02:45:54;32.70;;;31.03;;
20040;SDS011;10181;48.072;9.884;2022-12-15T02:48:26;30.57;;;28.97;;
20040;SDS011;10181;48.072;9.884;2022-12-15T02:56:31;27.90;;;26.23;;
20040;SDS011;10181;48.072;9.884;2022-12-15T03:02:01;26.60;;;24.93;;
20040;SDS011;10181;48.072;9.884;2022-12-15T03:04:29;26.77;;;25.10;;
20040;SDS011;10181;48.072;9.884;2022-12-15T03:06:58;27.47;;;25.90;;
20040;SDS011;10181;48.072;9.884;2022-12-15T03:09:28;30.13;;;28.37;;
20040;SDS011;10181;48.072;9.884;2022-12-15T03:11:54;27.20;;;25.60;;
20040;SDS011;10181;48.072;9.884;2022-12-15T03:14:20;29.23;;;27.33;;
20040;SDS011;10181;48.072;9.884;2022-12-15T03:16:45;28.53;;;27.00;;
20040;SDS011;10181;48.072;9.884;2022-12-15T03:19:11;25.63;;;23.93;;
20040;SDS011;10181;48.072;9.884;2022-12-15T03:21:37;29.20;;;27.60;;
20040;SDS011;10181;48.072;9.884;2022-12-15T03:24:02;27.53;;;25.97;;
20040;SDS011;10181;48.072;9.884;2022-12-15T03:26:28;27.63;;;25.83;;
20040;SDS011;10181;48.072;9.884;2022-12-15T03:28:54;27.60;;;26.13;;
20040;SDS011;10181;48.072;9.884;2022-12-15T03:31:19;31.90;;;29.93;;
20040;SDS011;10181;48.072;9.884;2022-12-15T03:33:45;26.30;;;24.67;;
20040;SDS011;10181;48.072;9.884;2022-12-15T03:36:10;26.93;;;25.20;;
20040;SDS011;10181;48.072;9.884;2022-12-15T03:38:36;27.13;;;25.00;;
20040;SDS011;10181;48.072;9.884;2022-12-15T03:41:02;28.70;;;26.93;;
20040;SDS011;10181;48.072;9.884;2022-12-15T03:43:27;25.20;;;23.70;;
20040;SDS011;10181;48.072;9.884;2022-12-15T03:45:53;26.83;;;25.07;;
20040;SDS011;10181;48.072;9.884;2022-12-15T03:48:18;25.10;;;23.40;;
20040;SDS011;10181;48.072;9.884;2022-12-15T03:50:44;28.53;;;26.63;;
20040;SDS011;10181;48.072;9.884;2022-12-15T03:53:13;26.63;;;24.67;;
20040;SDS011;10181;48.072;9.884;2022-12-15T03:55:38;31.10;;;29.17;;
20040;SDS011;10181;48.072;9.884;2022-12-15T03:58:04;26.47;;;24.87;;
20040;SDS011;10181;48.072;9.884;2022-12-15T04:00:29;24.80;;;23.37;;
20040;SDS011;10181;48.072;9.884;2022-12-15T04:02:55;28.10;;;26.40;;
20040;SDS011;10181;48.072;9.884;2022-12-15T04:07:54;25.00;;;23.27;;
20040;SDS011;10181;48.072;9.884;2022-12-15T04:10:21;28.30;;;26.47;;
20040;SDS011;10181;48.072;9.884;2022-12-15T04:12:49;27.53;;;26.00;;
20040;SDS011;10181;48.072;9.884;2022-12-15T04:15:21;26.20;;;24.60;;
20040;SDS011;10181;48.072;9.884;2022-12-15T04:17:47;23.43;;;21.97;;
20040;SDS011;10181;48.072;9.884;2022-12-15T04:20:12;27.23;;;25.50;;
20040;SDS011;10181;48.072;9.884;2022-12-15T04:22:39;26.97;;;25.50;;
20040;SDS011;10181;48.072;9.884;2022-12-15T04:25:07;25.93;;;24.43;;
20040;SDS011;10181;48.072;9.884;2022-12-15T04:27:53;27.17;;;25.57;;
20040;SDS011;10181;48.072;9.884;2022-12-15T04:30:37;28.03;;;26.43;;
20040;SDS011;10181;48.072;9.884;2022-12-15T04:33:24;25.83;;;24.10;;
20040;SDS011;10181;48.072;9.884;2022-12-15T04:36:08;27.73;;;25.80;;
20040;SDS011;10181;48.072;9.884;2022-12-15T04:38:54;28.30;;;26.47;;
20040;SDS011;10181;48.072;9.884;2022-12-15T04:41:40;31.23;;;29.37;;
20040;SDS011;10181;48.072;9.884;2022-12-15T04:44:24;27.53;;;25.40;;
20040;SDS011;10181;48.072;9.884;2022-12-15T04:47:08;28.70;;;26.83;;
20040;SDS011;10181;48.072;9.884;2022-12-15T04:49:52;28.63;;;26.83;;
20040;SDS011;10181;48.072;9.884;2022-12-15T04:52:36;26.70;;;24.90;;
20040;SDS011;10181;48.072;9.884;2022-12-15T04:55:20;27.10;;;25.27;;
20040;SDS011;10181;48.072;9.884;2022-12-15T04:58:05;26.27;;;24.63;;
20040;SDS011;10181;48.072;9.884;2022-12-15T05:00:51;27.13;;;25.27;;
20040;SDS011;10181;48.072;9.884;2022-12-15T05:03:35;30.17;;;28.00;;
20040;SDS011;10181;48.072;9.884;2022-12-15T05:06:19;27.97;;;26.07;;
20040;SDS011;10181;48.072;9.884;2022-12-15T05:09:03;27.23;;;25.33;;
20040;SDS011;10181;48.072;9.884;2022-12-15T05:11:47;27.17;;;25.37;;
20040;SDS011;10181;48.072;9.884;2022-12-15T05:14:32;24.37;;;22.67;;
20040;SDS011;10181;48.072;9.884;2022-12-15T05:17:16;24.83;;;22.97;;
20040;SDS011;10181;48.072;9.884;2022-12-15T05:20:00;27.30;;;25.33;;
20040;SDS011;10181;48.072;9.884;2022-12-15T05:22:44;24.00;;;22.20;;
20040;SDS011;10181;48.072;9.884;2022-12-15T05:25:28;23.37;;;21.50;;
20040;SDS011;10181;48.072;9.884;2022-12-15T05:28:12;21.90;;;20.20;;
20040;SDS011;10181;48.072;9.884;2022-12-15T05:30:56;19.57;;;17.93;;
20040;SDS011;10181;48.072;9.884;2022-12-15T05:33:40;19.80;;;18.17;;
20040;SDS011;10181;48.072;9.884;2022-12-15T05:36:06;20.03;;;18.27;;
20040;SDS011;10181;48.072;9.884;2022-12-15T05:38:32;20.47;;;18.60;;
20040;SDS011;10181;48.072;9.884;2022-12-15T05:40:58;19.27;;;17.30;;
20040;SDS011;10181;48.072;9.884;2022-12-15T05:43:24;19.77;;;18.17;;
20040;SDS011;10181;48.072;9.884;2022-12-15T05:45:50;18.60;;;17.03;;
20040;SDS011;10181;48.072;9.884;2022-12-15T05:48:15;21.43;;;19.50;;
20040;SDS011;10181;48.072;9.884;2022-12-15T05:50:41;20.73;;;18.60;;
20040;SDS011;10181;48.072;9.884;2022-12-15T05:53:07;17.73;;;16.03;;
20040;SDS011;10181;48.072;9.884;2022-12-15T05:55:32;21.77;;;19.93;;
20040;SDS011;10181;48.072;9.884;2022-12-15T05:57:58;23.20;;;21.07;;
20040;SDS011;10181;48.072;9.884;2022-12-15T06:00:23;20.63;;;18.97;;
20040;SDS011;10181;48.072;9.884;2022-12-15T06:02:49;21.57;;;19.07;;
20040;SDS011;10181;48.072;9.884;2022-12-15T06:05:15;20.77;;;18.77;;
20040;SDS011;10181;48.072;9.884;2022-12-15T06:07:41;19.13;;;17.37;;
20040;SDS011;10181;48.072;9.884;2022-12-15T06:10:07;21.33;;;19.50;;
20040;SDS011;10181;48.072;9.884;2022-12-15T06:12:32;19.47;;;17.80;;
20040;SDS011;10181;48.072;9.884;2022-12-15T06:14:58;20.30;;;18.33;;
20040;SDS011;10181;48.072;9.884;2022-12-15T06:17:24;20.50;;;18.50;;
20040;SDS011;10181;48.072;9.884;2022-12-15T06:19:49;17.23;;;15.63;;
20040;SDS011;10181;48.072;9.884;2022-12-15T06:22:15;19.17;;;17.27;;
20040;SDS011;10181;48.072;9.884;2022-12-15T06:24:41;17.10;;;15.53;;
20040;SDS011;10181;48.072;9.884;2022-12-15T06:27:06;17.00;;;15.30;;
20040;SDS011;10181;48.072;9.884;2022-12-15T06:29:33;19.63;;;17.80;;
20040;SDS011;10181;48.072;9.884;2022-12-15T06:31:58;19.17;;;17.30;;
20040;SDS011;10181;48.072;9.884;2022-12-15T06:34:24;20.33;;;18.43;;
20040;SDS011;10181;48.072;9.884;2022-12-15T06:36:51;20.40;;;18.40;;
20040;SDS011;10181;48.072;9.884;2022-12-15T06:39:16;19.33;;;16.30;;
20040;SDS011;10181;48.072;9.884;2022-12-15T06:41:42;17.73;;;15.80;;
20040;SDS011;10181;48.072;9.884;2022-12-15T06:44:11;20.60;;;18.20;;
20040;SDS011;10181;48.072;9.884;2022-12-15T06:46:38;16.90;;;15.23;;
20040;SDS011;10181;48.072;9.884;2022-12-15T06:49:03;16.53;;;14.90;;
20040;SDS011;10181;48.072;9.884;2022-12-15T06:51:29;16.47;;;14.60;;
20040;SDS011;10181;48.072;9.884;2022-12-15T06:53:55;16.90;;;15.23;;
20040;SDS011;10181;48.072;9.884;2022-12-15T06:58:53;18.90;;;16.43;;
20040;SDS011;10181;48.072;9.884;2022-12-15T07:01:20;17.60;;;15.17;;
20040;SDS011;10181;48.072;9.884;2022-12-15T07:03:47;17.20;;;13.57;;
20040;SDS011;10181;48.072;9.884;2022-12-15T07:06:14;17.37;;;14.60;;
20040;SDS011;10181;48.072;9.884;2022-12-15T07:08:41;19.87;;;13.63;;
20040;SDS011;10181;48.072;9.884;2022-12-15T07:11:09;18.33;;;15.23;;
20040;SDS011;10181;48.072;9.884;2022-12-15T07:13:36;17.13;;;14.70;;
20040;SDS011;10181;48.072;9.884;2022-12-15T07:16:03;14.97;;;13.43;;
20040;SDS011;10181;48.072;9.884;2022-12-15T07:18:30;17.83;;;13.37;;
20040;SDS011;10181;48.072;9.884;2022-12-15T07:21:00;16.83;;;12.73;;
20040;SDS011;10181;48.072;9.884;2022-12-15T07:23:28;14.87;;;12.67;;
20040;SDS011;10181;48.072;9.884;2022-12-15T07:25:54;14.87;;;13.37;;
20040;SDS011;10181;48.072;9.884;2022-12-15T07:28:20;15.03;;;13.30;;
20040;SDS011;10181;48.072;9.884;2022-12-15T07:30:45;17.93;;;13.93;;
20040;SDS011;10181;48.072;9.884;2022-12-15T07:33:11;15.67;;;13.20;;
20040;SDS011;10181;48.072;9.884;2022-12-15T07:35:36;15.70;;;13.57;;
20040;SDS011;10181;48.072;9.884;2022-12-15T07:38:05;14.73;;;12.97;;
20040;SDS011;10181;48.072;9.884;2022-12-15T07:40:31;14.30;;;12.00;;
20040;SDS011;10181;48.072;9.884;2022-12-15T07:42:57;14.33;;;12.27;;
20040;SDS011;10181;48.072;9.884;2022-12-15T07:45:22;13.50;;;11.83;;
20040;SDS011;10181;48.072;9.884;2022-12-15T07:47:48;15.17;;;13.73;;
20040;SDS011;10181;48.072;9.884;2022-12-15T07:50:15;19.80;;;14.60;;
20040;SDS011;10181;48.072;9.884;2022-12-15T07:52:41;17.63;;;15.73;;
20040;SDS011;10181;48.072;9.884;2022-12-15T07:55:07;15.40;;;13.83;;
20040;SDS011;10181;48.072;9.884;2022-12-15T07:57:33;16.43;;;14.43;;
20040;SDS011;10181;48.072;9.884;2022-12-15T07:59:58;16.47;;;13.53;;
20040;SDS011;10181;48.072;9.884;2022-12-15T08:02:24;17.60;;;13.70;;
20040;SDS011;10181;48.072;9.884;2022-12-15T08:04:49;15.40;;;12.93;;
20040;SDS011;10181;48.072;9.884;2022-12-15T08:07:15;18.70;;;13.33;;
20040;SDS011;10181;48.072;9.884;2022-12-15T08:09:41;17.80;;;15.37;;
20040;SDS011;10181;48.072;9.884;2022-12-15T08:12:07;23.07;;;14.83;;
20040;SDS011;10181;48.072;9.884;2022-12-15T08:14:32;19.50;;;15.63;;
20040;SDS011;10181;48.072;9.884;2022-12-15T08:16:58;18.47;;;14.80;;
20040;SDS011;10181;48.072;9.884;2022-12-15T08:19:24;18.23;;;15.03;;
20040;SDS011;10181;48.072;9.884;2022-12-15T08:21:50;20.67;;;16.27;;
20040;SDS011;10181;48.072;9.884;2022-12-15T08:24:15;20.23;;;16.23;;
20040;SDS011;10181;48.072;9.884;2022-12-15T08:26:42;19.13;;;16.37;;
20040;SDS011;10181;48.072;9.884;2022-12-15T08:29:12;20.47;;;17.13;;
20040;SDS011;10181;48.072;9.884;2022-12-15T08:31:38;17.03;;;15.20;;
20040;SDS011;10181;48.072;9.884;2022-12-15T08:34:05;21.20;;;16.50;;
20040;SDS011;10181;48.072;9.884;2022-12-15T08:36:31;22.83;;;19.03;;
20040;SDS011;10181;48.072;9.884;2022-12-15T08:38:58;26.37;;;19.03;;
20040;SDS011;10181;48.072;9.884;2022-12-15T08:41:25;28.87;;;19.27;;
20040;SDS011;10181;48.072;9.884;2022-12-15T08:43:53;22.23;;;19.60;;
20040;SDS011;10181;48.072;9.884;2022-12-15T08:46:38;24.07;;;21.17;;
20040;SDS011;10181;48.072;9.884;2022-12-15T08:49:03;23.67;;;20.67;;
20040;SDS011;10181;48.072;9.884;2022-12-15T08:51:30;22.10;;;19.60;;
20040;SDS011;10181;48.072;9.884;2022-12-15T08:53:57;25.27;;;23.00;;
20040;SDS011;10181;48.072;9.884;2022-12-15T08:56:24;22.57;;;20.33;;
20040;SDS011;10181;48.072;9.884;2022-12-15T08:58:54;28.53;;;26.03;;
20040;SDS011;10181;48.072;9.884;2022-12-15T09:01:24;27.93;;;24.93;;
20040;SDS011;10181;48.072;9.884;2022-12-15T09:03:51;28.33;;;25.63;;
20040;SDS011;10181;48.072;9.884;2022-12-15T09:06:18;29.77;;;27.07;;
20040;SDS011;10181;48.072;9.884;2022-12-15T09:08:52;28.70;;;26.07;;
20040;SDS011;10181;48.072;9.884;2022-12-15T09:11:18;33.77;;;29.90;;
20040;SDS011;10181;48.072;9.884;2022-12-15T09:13:44;33.07;;;30.17;;
20040;SDS011;10181;48.072;9.884;2022-12-15T09:16:14;30.37;;;27.67;;
20040;SDS011;10181;48.072;9.884;2022-12-15T09:18:42;27.37;;;24.67;;
20040;SDS011;10181;48.072;9.884;2022-12-15T09:21:10;30.37;;;27.47;;
20040;SDS011;10181;48.072;9.884;2022-12-15T09:23:37;29.17;;;26.47;;
20040;SDS011;10181;48.072;9.884;2022-12-15T09:26:07;31.03;;;28.37;;
20040;SDS011;10181;48.072;9.884;2022-12-15T09:28:34;30.87;;;27.97;;
20040;SDS011;10181;48.072;9.884;2022-12-15T09:31:04;33.70;;;30.63;;
20040;SDS011;10181;48.072;9.884;2022-12-15T09:33:30;30.90;;;28.30;;
20040;SDS011;10181;48.072;9.884;2022-12-15T09:35:57;34.67;;;31.17;;
20040;SDS011;10181;48.072;9.884;2022-12-15T09:38:23;30.10;;;27.30;;
20040;SDS011;10181;48.072;9.884;2022-12-15T09:40:49;36.83;;;33.83;;
20040;SDS011;10181;48.072;9.884;2022-12-15T09:43:16;41.30;;;38.13;;
20040;SDS011;10181;48.072;9.884;2022-12-15T09:46:02;28.90;;;26.57;;
20040;SDS011;10181;48.072;9.884;2022-12-15T09:48:41;30.50;;;27.73;;
20040;SDS011;10181;48.072;9.884;2022-12-15T09:51:11;34.57;;;31.70;;
20040;SDS011;10181;48.072;9.884;2022-12-15T09:53:44;35.30;;;32.20;;
20040;SDS011;10181;48.072;9.884;2022-12-15T09:56:20;36.70;;;33.67;;
20040;SDS011;10181;48.072;9.884;2022-12-15T09:58:59;31.63;;;28.80;;
20040;SDS011;10181;48.072;9.884;2022-12-15T10:01:36;33.20;;;30.60;;
20040;SDS011;10181;48.072;9.884;2022-12-15T10:09:53;34.03;;;31.07;;
20040;SDS011;10181;48.072;9.884;2022-12-15T10:12:31;34.73;;;31.53;;
20040;SDS011;10181;48.072;9.884;2022-12-15T10:17:35;36.23;;;33.10;;
20040;SDS011;10181;48.072;9.884;2022-12-15T10:20:14;36.87;;;33.83;;
20040;SDS011;10181;48.072;9.884;2022-12-15T10:22:43;37.97;;;34.83;;
20040;SDS011;10181;48.072;9.884;2022-12-15T10:25:17;35.87;;;32.63;;
20040;SDS011;10181;48.072;9.884;2022-12-15T10:31:01;31.43;;;28.80;;
20040;SDS011;10181;48.072;9.884;2022-12-15T10:33:40;32.13;;;29.40;;
20040;SDS011;10181;48.072;9.884;2022-12-15T10:36:10;36.17;;;33.00;;
20040;SDS011;10181;48.072;9.884;2022-12-15T10:38:38;35.50;;;32.53;;
20040;SDS011;10181;48.072;9.884;2022-12-15T10:41:16;33.37;;;30.57;;
20040;SDS011;10181;48.072;9.884;2022-12-15T10:43:46;31.27;;;28.77;;
20040;SDS011;10181;48.072;9.884;2022-12-15T10:46:14;30.50;;;27.80;;
20040;SDS011;10181;48.072;9.884;2022-12-15T10:48:44;31.53;;;28.67;;
20040;SDS011;10181;48.072;9.884;2022-12-15T10:51:18;30.43;;;27.13;;
20040;SDS011;10181;48.072;9.884;2022-12-15T10:53:53;26.77;;;24.27;;
20040;SDS011;10181;48.072;9.884;2022-12-15T10:56:28;26.03;;;23.23;;
20040;SDS011;10181;48.072;9.884;2022-12-15T10:58:56;21.43;;;19.23;;
20040;SDS011;10181;48.072;9.884;2022-12-15T11:01:24;23.77;;;18.83;;
20040;SDS011;10181;48.072;9.884;2022-12-15T11:03:51;23.77;;;18.20;;
20040;SDS011;10181;48.072;9.884;2022-12-15T11:06:19;23.90;;;17.87;;
20040;SDS011;10181;48.072;9.884;2022-12-15T11:08:50;18.77;;;14.20;;
20040;SDS011;10181;48.072;9.884;2022-12-15T11:11:33;16.87;;;14.33;;
20040;SDS011;10181;48.072;9.884;2022-12-15T11:14:28;20.67;;;17.20;;
20040;SDS011;10181;48.072;9.884;2022-12-15T11:17:07;22.10;;;17.47;;
20040;SDS011;10181;48.072;9.884;2022-12-15T11:19:43;21.27;;;14.70;;
20040;SDS011;10181;48.072;9.884;2022-12-15T11:24:59;21.07;;;15.77;;
20040;SDS011;10181;48.072;9.884;2022-12-15T11:27:39;25.50;;;17.40;;
20040;SDS011;10181;48.072;9.884;2022-12-15T11:30:19;20.73;;;14.37;;
20040;SDS011;10181;48.072;9.884;2022-12-15T11:32:46;23.30;;;16.03;;
20040;SDS011;10181;48.072;9.884;2022-12-15T11:35:17;23.63;;;16.07;;
20040;SDS011;10181;48.072;9.884;2022-12-15T11:37:50;24.67;;;16.20;;
20040;SDS011;10181;48.072;9.884;2022-12-15T11:40:39;26.43;;;20.67;;
20040;SDS011;10181;48.072;9.884;2022-12-15T11:43:26;25.50;;;22.70;;
20040;SDS011;10181;48.072;9.884;2022-12-15T11:46:17;29.50;;;26.40;;
20040;SDS011;10181;48.072;9.884;2022-12-15T11:56:45;35.27;;;32.23;;
20040;SDS011;10181;48.072;9.884;2022-12-15T12:02:32;36.00;;;25.37;;
20040;SDS011;10181;48.072;9.884;2022-12-15T12:19:04;31.30;;;18.63;;
20040;SDS011;10181;48.072;9.884;2022-12-15T12:21:44;29.13;;;21.00;;
20040;SDS011;10181;48.072;9.884;2022-12-15T12:40:17;33.53;;;22.37;;
20040;SDS011;10181;48.072;9.884;2022-12-15T12:42:53;32.13;;;21.87;;
20040;SDS011;10181;48.072;9.884;2022-12-15T12:45:22;30.70;;;19.47;;
20040;SDS011;10181;48.072;9.884;2022-12-15T12:47:59;33.00;;;19.67;;
20040;SDS011;10181;48.072;9.884;2022-12-15T12:50:31;26.50;;;20.33;;
20040;SDS011;10181;48.072;9.884;2022-12-15T12:52:59;36.43;;;19.77;;
20040;SDS011;10181;48.072;9.884;2022-12-15T12:55:28;29.93;;;20.90;;
20040;SDS011;10181;48.072;9.884;2022-12-15T12:58:12;32.97;;;19.97;;
20040;SDS011;10181;48.072;9.884;2022-12-15T13:17:01;31.97;;;18.00;;
20040;SDS011;10181;48.072;9.884;2022-12-15T13:22:22;36.07;;;18.87;;
20040;SDS011;10181;48.072;9.884;2022-12-15T13:24:59;35.80;;;18.40;;
20040;SDS011;10181;48.072;9.884;2022-12-15T13:27:36;30.63;;;18.13;;
20040;SDS011;10181;48.072;9.884;2022-12-15T13:32:40;31.90;;;19.90;;
20040;SDS011;10181;48.072;9.884;2022-12-15T13:37:55;33.90;;;21.73;;
20040;SDS011;10181;48.072;9.884;2022-12-15T13:50:51;32.43;;;20.87;;
20040;SDS011;10181;48.072;9.884;2022-12-15T13:53:21;31.90;;;20.87;;
20040;SDS011;10181;48.072;9.884;2022-12-15T13:59:03;39.13;;;20.13;;
20040;SDS011;10181;48.072;9.884;2022-12-15T14:01:36;35.43;;;22.07;;
20040;SDS011;10181;48.072;9.884;2022-12-15T14:04:04;31.93;;;21.73;;
20040;SDS011;10181;48.072;9.884;2022-12-15T14:06:34;33.00;;;24.53;;
20040;SDS011;10181;48.072;9.884;2022-12-15T14:09:02;32.00;;;23.20;;
20040;SDS011;10181;48.072;9.884;2022-12-15T14:11:30;30.20;;;24.20;;
20040;SDS011;10181;48.072;9.884;2022-12-15T14:13:59;33.33;;;21.77;;
20040;SDS011;10181;48.072;9.884;2022-12-15T14:16:26;32.47;;;23.53;;
20040;SDS011;10181;48.072;9.884;2022-12-15T14:21:33;38.10;;;23.90;;
20040;SDS011;10181;48.072;9.884;2022-12-15T14:23:58;38.57;;;24.07;;
20040;SDS011;10181;48.072;9.884;2022-12-15T14:26:26;30.77;;;24.50;;
20040;SDS011;10181;48.072;9.884;2022-12-15T14:29:02;28.13;;;20.57;;
20040;SDS011;10181;48.072;9.884;2022-12-15T14:31:29;28.50;;;22.03;;
20040;SDS011;10181;48.072;9.884;2022-12-15T14:34:02;32.80;;;21.97;;
20040;SDS011;10181;48.072;9.884;2022-12-15T14:36:32;33.70;;;20.17;;
20040;SDS011;10181;48.072;9.884;2022-12-15T14:39:01;38.13;;;22.07;;
20040;SDS011;10181;48.072;9.884;2022-12-15T14:41:35;31.57;;;19.67;;
20040;SDS011;10181;48.072;9.884;2022-12-15T14:44:04;35.10;;;19.57;;
20040;SDS011;10181;48.072;9.884;2022-12-15T14:46:47;29.67;;;18.63;;
20040;SDS011;10181;48.072;9.884;2022-12-15T14:49:20;33.17;;;19.10;;
20040;SDS011;10181;48.072;9.884;2022-12-15T14:51:59;32.13;;;18.00;;
20040;SDS011;10181;48.072;9.884;2022-12-15T14:57:01;35.67;;;19.57;;
20040;SDS011;10181;48.072;9.884;2022-12-15T14:59:32;31.60;;;19.37;;
20040;SDS011;10181;48.072;9.884;2022-12-15T15:04:58;31.07;;;20.00;;
20040;SDS011;10181;48.072;9.884;2022-12-15T15:07:27;28.77;;;19.40;;
20040;SDS011;10181;48.072;9.884;2022-12-15T15:09:55;31.33;;;18.83;;
20040;SDS011;10181;48.072;9.884;2022-12-15T15:12:22;28.40;;;19.27;;
20040;SDS011;10181;48.072;9.884;2022-12-15T15:14:51;33.03;;;19.43;;
20040;SDS011;10181;48.072;9.884;2022-12-15T15:18:27;30.70;;;19.43;;
20040;SDS011;10181;48.072;9.884;2022-12-15T15:25:36;30.17;;;18.60;;
20040;SDS011;10181;48.072;9.884;2022-12-15T15:30:58;35.47;;;20.63;;
20040;SDS011;10181;48.072;9.884;2022-12-15T15:33:29;33.17;;;18.90;;
20040;SDS011;10181;48.072;9.884;2022-12-15T15:35:56;32.37;;;19.83;;
20040;SDS011;10181;48.072;9.884;2022-12-15T15:38:24;31.10;;;18.23;;
20040;SDS011;10181;48.072;9.884;2022-12-15T15:40:58;37.10;;;20.73;;
20040;SDS011;10181;48.072;9.884;2022-12-15T15:43:25;35.53;;;18.87;;
20040;SDS011;10181;48.072;9.884;2022-12-15T15:46:02;31.53;;;19.63;;
20040;SDS011;10181;48.072;9.884;2022-12-15T15:48:31;33.60;;;19.83;;
20040;SDS011;10181;48.072;9.884;2022-12-15T15:50:58;29.03;;;20.77;;
20040;SDS011;10181;48.072;9.884;2022-12-15T15:53:25;32.77;;;19.57;;
20040;SDS011;10181;48.072;9.884;2022-12-15T15:55:54;31.30;;;18.57;;
20040;SDS011;10181;48.072;9.884;2022-12-15T15:58:20;31.50;;;18.73;;
20040;SDS011;10181;48.072;9.884;2022-12-15T16:00:46;32.03;;;20.33;;
20040;SDS011;10181;48.072;9.884;2022-12-15T16:03:11;31.20;;;20.27;;
20040;SDS011;10181;48.072;9.884;2022-12-15T16:05:38;31.00;;;21.17;;
20040;SDS011;10181;48.072;9.884;2022-12-15T16:08:04;34.80;;;19.80;;
20040;SDS011;10181;48.072;9.884;2022-12-15T16:10:30;33.00;;;22.73;;
20040;SDS011;10181;48.072;9.884;2022-12-15T16:12:57;34.27;;;23.10;;
20040;SDS011;10181;48.072;9.884;2022-12-15T16:15:28;38.13;;;25.20;;
20040;SDS011;10181;48.072;9.884;2022-12-15T16:17:58;31.60;;;21.87;;
20040;SDS011;10181;48.072;9.884;2022-12-15T16:20:26;35.33;;;23.63;;
20040;SDS011;10181;48.072;9.884;2022-12-15T16:22:54;36.67;;;25.87;;
20040;SDS011;10181;48.072;9.884;2022-12-15T16:27:56;38.33;;;25.43;;
20040;SDS011;10181;48.072;9.884;2022-12-15T16:30:23;33.70;;;25.37;;
20040;SDS011;10181;48.072;9.884;2022-12-15T16:32:50;35.73;;;28.70;;
20040;SDS011;10181;48.072;9.884;2022-12-15T16:35:17;36.23;;;25.37;;
20040;SDS011;10181;48.072;9.884;2022-12-15T16:37:43;29.73;;;24.53;;
20040;SDS011;10181;48.072;9.884;2022-12-15T16:40:24;36.77;;;24.23;;
20040;SDS011;10181;48.072;9.884;2022-12-15T16:42:55;35.90;;;24.20;;
20040;SDS011;10181;48.072;9.884;2022-12-15T16:45:26;35.37;;;26.80;;
20040;SDS011;10181;48.072;9.884;2022-12-15T16:47:53;33.27;;;25.83;;
20040;SDS011;10181;48.072;9.884;2022-12-15T16:50:29;39.17;;;28.90;;
20040;SDS011;10181;48.072;9.884;2022-12-15T16:52:58;33.33;;;28.43;;
20040;SDS011;10181;48.072;9.884;2022-12-15T16:55:26;40.63;;;28.30;;
20040;SDS011;10181;48.072;9.884;2022-12-15T16:58:03;34.50;;;23.77;;
20040;SDS011;10181;48.072;9.884;2022-12-15T17:00:31;37.63;;;29.63;;
20040;SDS011;10181;48.072;9.884;2022-12-15T17:02:58;36.67;;;26.90;;
20040;SDS011;10181;48.072;9.884;2022-12-15T17:05:25;34.07;;;26.07;;
20040;SDS011;10181;48.072;9.884;2022-12-15T17:07:54;36.63;;;31.03;;